createdAt,value
2017-12-26T00:00:13.821Z,5.61
2017-12-26T00:01:14.390Z,5.64
2017-12-26T00:02:14.959Z,5.59
2017-12-26T00:03:15.527Z,5.57
2017-12-26T00:04:16.098Z,5.46
2017-12-26T00:05:16.667Z,5.64
2017-12-26T00:06:17.236Z,5.64
2017-12-26T00:07:17.820Z,5.61
2017-12-26T00:08:18.403Z,5.66
2017-12-26T00:09:18.984Z,5.68
2017-12-26T00:10:19.602Z,5.59
2017-12-26T00:11:20.172Z,5.64
2017-12-26T00:12:20.743Z,5.59
2017-12-26T00:13:21.310Z,5.59
2017-12-26T00:14:21.878Z,5.62
2017-12-26T00:15:22.460Z,5.64
2017-12-26T00:16:23.029Z,5.64
2017-12-26T00:17:23.598Z,5.68
2017-12-26T00:18:24.166Z,5.66
2017-12-26T00:19:24.736Z,5.51
2017-12-26T00:20:25.307Z,5.48
2017-12-26T00:21:25.893Z,5.53
2017-12-26T00:22:26.461Z,5.53
2017-12-26T00:23:27.032Z,5.46
2017-12-26T00:24:27.617Z,5.47
2017-12-26T00:25:28.187Z,5.51
2017-12-26T00:26:28.757Z,5.48
2017-12-26T00:27:29.338Z,5.57
2017-12-26T00:28:29.906Z,5.51
2017-12-26T00:29:30.475Z,5.44
2017-12-26T00:30:31.045Z,5.50
2017-12-26T00:31:31.615Z,5.47
2017-12-26T00:32:32.186Z,5.44
2017-12-26T00:33:32.755Z,5.41
2017-12-26T00:34:33.325Z,5.33
2017-12-26T00:35:33.893Z,5.41
2017-12-26T00:36:34.475Z,5.28
2017-12-26T00:37:35.045Z,5.28
2017-12-26T00:38:35.616Z,5.33
2017-12-26T00:39:36.203Z,5.25
2017-12-26T00:40:36.782Z,5.20
2017-12-26T00:41:37.350Z,5.15
2017-12-26T00:42:37.918Z,5.10
2017-12-26T00:43:38.487Z,5.12
2017-12-26T00:44:39.058Z,5.05
2017-12-26T00:45:39.628Z,5.08
2017-12-26T00:46:40.201Z,5.11
2017-12-26T00:47:40.770Z,5.00
2017-12-26T00:48:41.339Z,5.04
2017-12-26T00:49:41.909Z,5.02
2017-12-26T00:50:42.486Z,4.97
2017-12-26T00:51:43.050Z,5.04
2017-12-26T00:52:43.619Z,4.94
2017-12-26T00:53:44.188Z,4.99
2017-12-26T00:54:44.771Z,5.02
2017-12-26T00:55:45.339Z,4.97
2017-12-26T00:56:45.910Z,5.04
2017-12-26T00:57:46.489Z,4.94
2017-12-26T00:58:47.058Z,5.07
2017-12-26T00:59:47.627Z,4.94
2017-12-26T01:00:48.247Z,4.86
2017-12-26T01:01:48.815Z,4.84
2017-12-26T01:02:49.384Z,4.80
2017-12-26T01:03:49.952Z,4.86
2017-12-26T01:04:50.523Z,4.78
2017-12-26T01:05:51.092Z,4.78
2017-12-26T01:06:51.676Z,4.84
2017-12-26T01:07:52.246Z,4.74
2017-12-26T01:08:52.816Z,4.67
2017-12-26T01:09:53.385Z,4.67
2017-12-26T01:10:53.968Z,4.75
2017-12-26T01:11:54.543Z,4.66
2017-12-26T01:12:55.122Z,4.67
2017-12-26T01:13:55.690Z,4.62
2017-12-26T01:14:56.259Z,4.66
2017-12-26T01:15:56.841Z,4.63
2017-12-26T01:16:57.410Z,4.63
2017-12-26T01:17:57.979Z,4.58
2017-12-26T01:18:58.546Z,4.56
2017-12-26T01:19:59.116Z,4.58
2017-12-26T01:20:59.703Z,4.58
2017-12-26T01:22:00.269Z,4.50
2017-12-26T01:23:00.837Z,4.60
2017-12-26T01:24:01.407Z,4.42
2017-12-26T01:25:01.975Z,4.45
2017-12-26T01:26:02.558Z,4.49
2017-12-26T01:27:03.128Z,4.53
2017-12-26T01:28:03.712Z,4.52
2017-12-26T01:29:04.280Z,4.48
2017-12-26T01:30:04.849Z,4.55
2017-12-26T01:31:05.417Z,4.53
2017-12-26T01:32:05.985Z,4.48
2017-12-26T01:33:06.557Z,4.41
2017-12-26T01:34:07.126Z,4.41
2017-12-26T01:35:07.709Z,4.35
2017-12-26T01:36:08.279Z,4.38
2017-12-26T01:37:08.848Z,4.31
2017-12-26T01:38:09.416Z,4.35
2017-12-26T01:39:09.987Z,4.26
2017-12-26T01:40:10.556Z,4.45
2017-12-26T01:41:11.127Z,4.32
2017-12-26T01:42:11.707Z,4.26
2017-12-26T01:43:12.276Z,4.28
2017-12-26T01:44:12.846Z,4.31
2017-12-26T01:45:13.414Z,4.31
2017-12-26T01:46:13.984Z,4.19
2017-12-26T01:47:14.550Z,4.17
2017-12-26T01:48:15.120Z,4.19
2017-12-26T01:49:15.689Z,4.20
2017-12-26T01:50:16.257Z,4.19
2017-12-26T01:51:16.826Z,4.19
2017-12-26T01:52:17.410Z,4.20
2017-12-26T01:53:17.978Z,4.12
2017-12-26T01:54:18.560Z,4.17
2017-12-26T01:55:19.180Z,4.19
2017-12-26T01:56:19.696Z,4.14
2017-12-26T01:57:20.264Z,4.14
2017-12-26T01:58:20.832Z,4.10
2017-12-26T01:59:21.401Z,4.08
2017-12-26T02:00:21.972Z,4.14
2017-12-26T02:01:22.540Z,4.12
2017-12-26T02:02:23.109Z,4.12
2017-12-26T02:03:23.676Z,4.16
2017-12-26T02:04:24.244Z,4.13
2017-12-26T02:05:24.814Z,4.12
2017-12-26T02:06:25.384Z,4.10
2017-12-26T02:07:25.953Z,4.17
2017-12-26T02:08:26.520Z,3.98
2017-12-26T02:09:33.356Z,4.14
2017-12-26T02:10:33.923Z,4.19
2017-12-26T02:11:34.492Z,4.12
2017-12-26T02:12:35.061Z,4.14
2017-12-26T02:13:35.630Z,4.06
2017-12-26T02:14:36.201Z,4.05
2017-12-26T02:15:36.770Z,4.05
2017-12-26T02:16:37.339Z,4.05
2017-12-26T02:17:37.905Z,4.06
2017-12-26T02:18:38.473Z,4.06
2017-12-26T02:19:39.043Z,4.06
2017-12-26T02:20:39.611Z,4.08
2017-12-26T02:21:40.182Z,4.05
2017-12-26T02:22:40.750Z,4.05
2017-12-26T02:23:41.317Z,4.08
2017-12-26T02:24:41.886Z,3.98
2017-12-26T02:25:42.455Z,4.04
2017-12-26T02:26:43.025Z,3.96
2017-12-26T02:27:43.593Z,3.95
2017-12-26T02:28:44.163Z,3.87
2017-12-26T02:29:44.746Z,3.99
2017-12-26T02:30:45.315Z,4.02
2017-12-26T02:31:45.882Z,3.96
2017-12-26T02:32:46.450Z,4.04
2017-12-26T02:33:47.019Z,4.06
2017-12-26T02:34:47.588Z,4.02
2017-12-26T02:35:48.170Z,4.01
2017-12-26T02:36:48.739Z,4.05
2017-12-26T02:37:49.308Z,4.06
2017-12-26T02:38:49.875Z,4.02
2017-12-26T02:39:50.444Z,4.02
2017-12-26T02:40:51.028Z,4.05
2017-12-26T02:41:51.616Z,4.05
2017-12-26T02:42:52.163Z,4.06
2017-12-26T02:43:52.740Z,3.95
2017-12-26T02:44:53.298Z,4.01
2017-12-26T02:45:53.868Z,4.05
2017-12-26T02:46:54.450Z,4.05
2017-12-26T02:47:55.018Z,4.08
2017-12-26T02:48:55.588Z,4.01
2017-12-26T02:49:56.156Z,3.96
2017-12-26T02:50:56.725Z,3.95
2017-12-26T02:51:57.308Z,3.98
2017-12-26T02:52:57.875Z,4.01
2017-12-26T02:53:58.443Z,3.96
2017-12-26T02:54:59.010Z,4.06
2017-12-26T02:55:59.579Z,3.98
2017-12-26T02:57:00.155Z,4.02
2017-12-26T02:58:00.716Z,4.08
2017-12-26T02:59:01.287Z,3.94
2017-12-26T03:00:01.856Z,3.96
2017-12-26T03:01:02.437Z,4.04
2017-12-26T03:02:03.005Z,3.98
2017-12-26T03:03:03.574Z,4.08
2017-12-26T03:04:04.143Z,3.99
2017-12-26T03:05:04.710Z,4.10
2017-12-26T03:06:05.279Z,4.05
2017-12-26T03:07:05.849Z,4.06
2017-12-26T03:08:06.416Z,4.10
2017-12-26T03:09:06.985Z,4.04
2017-12-26T03:10:07.553Z,4.08
2017-12-26T03:11:08.120Z,4.06
2017-12-26T03:12:08.691Z,4.04
2017-12-26T03:13:09.264Z,4.06
2017-12-26T03:14:09.830Z,4.06
2017-12-26T03:15:10.399Z,4.08
2017-12-26T03:16:10.966Z,4.08
2017-12-26T03:17:11.541Z,4.10
2017-12-26T03:18:12.105Z,4.10
2017-12-26T03:19:12.673Z,4.10
2017-12-26T03:20:13.242Z,4.20
2017-12-26T03:21:13.810Z,4.12
2017-12-26T03:22:14.377Z,4.13
2017-12-26T03:23:14.944Z,4.13
2017-12-26T03:24:15.513Z,4.08
2017-12-26T03:25:16.080Z,4.12
2017-12-26T03:26:16.650Z,4.19
2017-12-26T03:27:17.222Z,4.08
2017-12-26T03:28:17.786Z,4.08
2017-12-26T03:29:18.352Z,4.13
2017-12-26T03:30:18.922Z,4.12
2017-12-26T03:31:19.490Z,4.16
2017-12-26T03:32:20.055Z,4.16
2017-12-26T03:33:20.624Z,4.12
2017-12-26T03:34:21.193Z,4.14
2017-12-26T03:35:21.764Z,4.19
2017-12-26T03:36:22.331Z,4.12
2017-12-26T03:37:22.899Z,4.10
2017-12-26T03:38:23.467Z,4.19
2017-12-26T03:39:24.040Z,4.06
2017-12-26T03:40:24.604Z,4.06
2017-12-26T03:41:25.172Z,4.17
2017-12-26T03:42:25.743Z,4.08
2017-12-26T03:43:26.309Z,4.17
2017-12-26T03:44:26.882Z,4.12
2017-12-26T03:45:27.446Z,4.16
2017-12-26T03:46:28.014Z,4.12
2017-12-26T03:47:28.585Z,4.14
2017-12-26T03:48:29.150Z,4.13
2017-12-26T03:49:29.732Z,4.16
2017-12-26T03:50:30.306Z,4.22
2017-12-26T03:51:30.872Z,4.16
2017-12-26T03:52:31.490Z,4.20
2017-12-26T03:53:32.059Z,4.20
2017-12-26T03:54:32.643Z,4.19
2017-12-26T03:55:33.211Z,4.20
2017-12-26T03:56:33.780Z,4.30
2017-12-26T03:57:34.349Z,4.28
2017-12-26T03:58:34.917Z,4.24
2017-12-26T03:59:35.487Z,4.28
2017-12-26T04:00:36.057Z,4.28
2017-12-26T04:01:36.626Z,4.19
2017-12-26T04:02:37.195Z,4.13
2017-12-26T04:03:37.763Z,4.31
2017-12-26T04:04:38.332Z,4.41
2017-12-26T04:05:38.914Z,4.55
2017-12-26T04:06:39.483Z,4.42
2017-12-26T04:07:40.052Z,4.38
2017-12-26T04:08:40.621Z,4.35
2017-12-26T04:09:41.202Z,4.28
2017-12-26T04:10:41.771Z,4.34
2017-12-26T04:11:42.339Z,4.35
2017-12-26T04:12:42.909Z,4.48
2017-12-26T04:13:43.478Z,4.59
2017-12-26T04:14:44.046Z,4.58
2017-12-26T04:15:44.634Z,4.63
2017-12-26T04:16:45.196Z,4.75
2017-12-26T04:17:45.765Z,4.75
2017-12-26T04:18:46.335Z,4.78
2017-12-26T04:19:46.905Z,4.80
2017-12-26T04:20:47.474Z,4.87
2017-12-26T04:21:48.043Z,4.80
2017-12-26T04:22:48.615Z,4.90
2017-12-26T04:23:49.178Z,5.00
2017-12-26T04:24:49.746Z,4.99
2017-12-26T04:25:50.316Z,4.96
2017-12-26T04:26:50.885Z,4.97
2017-12-26T04:27:51.456Z,4.99
2017-12-26T04:28:52.036Z,5.10
2017-12-26T04:29:52.604Z,5.12
2017-12-26T04:30:53.172Z,5.25
2017-12-26T04:31:53.755Z,5.33
2017-12-26T04:32:54.322Z,5.33
2017-12-26T04:33:54.891Z,5.33
2017-12-26T04:34:55.458Z,5.32
2017-12-26T04:35:56.040Z,5.43
2017-12-26T04:36:56.608Z,5.35
2017-12-26T04:37:57.176Z,5.30
2017-12-26T04:38:57.743Z,5.23
2017-12-26T04:39:58.311Z,5.32
2017-12-26T04:40:58.880Z,5.44
2017-12-26T04:41:59.449Z,5.41
2017-12-26T04:43:00.017Z,5.47
2017-12-26T04:44:00.586Z,5.44
2017-12-26T04:45:01.155Z,5.39
2017-12-26T04:46:01.725Z,5.43
2017-12-26T04:47:02.291Z,5.54
2017-12-26T04:48:02.861Z,5.54
2017-12-26T04:49:03.445Z,5.51
2017-12-26T04:50:04.026Z,5.56
2017-12-26T04:51:04.594Z,5.56
2017-12-26T04:52:05.163Z,5.64
2017-12-26T04:53:05.732Z,5.71
2017-12-26T04:54:06.315Z,5.72
2017-12-26T04:55:06.884Z,5.68
2017-12-26T04:56:07.460Z,5.91
2017-12-26T04:57:08.021Z,5.99
2017-12-26T04:58:08.591Z,5.89
2017-12-26T04:59:09.158Z,5.84
2017-12-26T05:00:09.726Z,5.72
2017-12-26T05:01:10.296Z,5.76
2017-12-26T05:02:10.884Z,5.72
2017-12-26T05:03:11.461Z,5.83
2017-12-26T05:04:12.030Z,5.76
2017-12-26T05:05:12.599Z,5.79
2017-12-26T05:06:13.166Z,5.80
2017-12-26T05:07:13.735Z,5.83
2017-12-26T05:08:14.304Z,5.79
2017-12-26T05:09:14.873Z,5.86
2017-12-26T05:10:15.442Z,5.80
2017-12-26T05:11:16.026Z,5.94
2017-12-26T05:12:16.596Z,5.79
2017-12-26T05:13:17.163Z,5.71
2017-12-26T05:14:17.732Z,5.75
2017-12-26T05:15:18.304Z,5.83
2017-12-26T05:16:18.871Z,5.93
2017-12-26T05:17:19.454Z,5.91
2017-12-26T05:18:20.024Z,5.90
2017-12-26T05:19:20.593Z,5.89
2017-12-26T05:20:21.163Z,5.94
2017-12-26T05:21:21.733Z,5.87
2017-12-26T05:22:22.303Z,5.91
2017-12-26T05:23:22.885Z,5.91
2017-12-26T05:24:23.454Z,6.08
2017-12-26T05:25:24.024Z,6.17
2017-12-26T05:26:24.594Z,6.14
2017-12-26T05:27:25.176Z,6.04
2017-12-26T05:28:25.745Z,6.14
2017-12-26T05:29:26.313Z,6.07
2017-12-26T05:30:26.881Z,6.28
2017-12-26T05:31:27.448Z,6.27
2017-12-26T05:32:28.017Z,6.22
2017-12-26T05:33:28.589Z,6.24
2017-12-26T05:34:29.157Z,6.26
2017-12-26T05:35:29.726Z,6.26
2017-12-26T05:36:30.295Z,6.22
2017-12-26T05:37:30.863Z,6.26
2017-12-26T05:38:31.432Z,6.26
2017-12-26T05:39:32.002Z,6.36
2017-12-26T05:40:32.573Z,6.35
2017-12-26T05:41:33.142Z,6.36
2017-12-26T05:42:33.713Z,6.45
2017-12-26T05:43:34.282Z,6.57
2017-12-26T05:44:34.852Z,6.57
2017-12-26T05:45:35.422Z,6.49
2017-12-26T05:46:35.992Z,6.64
2017-12-26T05:47:36.562Z,6.79
2017-12-26T05:48:37.131Z,6.72
2017-12-26T05:49:37.700Z,6.85
2017-12-26T05:50:38.267Z,6.87
2017-12-26T05:51:38.837Z,6.85
2017-12-26T05:52:39.408Z,6.88
2017-12-26T05:53:39.979Z,6.89
2017-12-26T05:54:40.550Z,6.88
2017-12-26T05:55:41.119Z,6.87
2017-12-26T05:56:41.703Z,7.00
2017-12-26T05:57:42.273Z,7.06
2017-12-26T05:58:42.843Z,7.07
2017-12-26T05:59:43.412Z,7.11
2017-12-26T06:00:43.983Z,7.10
2017-12-26T06:01:44.552Z,7.32
2017-12-26T06:02:45.125Z,7.25
2017-12-26T06:03:45.694Z,7.18
2017-12-26T06:04:46.263Z,7.15
2017-12-26T06:05:46.834Z,7.18
2017-12-26T06:06:47.415Z,7.31
2017-12-26T06:07:47.985Z,7.28
2017-12-26T06:08:48.554Z,7.25
2017-12-26T06:09:49.139Z,7.31
2017-12-26T06:10:49.708Z,7.29
2017-12-26T06:11:50.281Z,7.18
2017-12-26T06:12:50.852Z,7.40
2017-12-26T06:13:51.439Z,7.31
2017-12-26T06:14:52.018Z,7.28
2017-12-26T06:15:52.590Z,7.31
2017-12-26T06:16:53.164Z,7.21
2017-12-26T06:17:53.744Z,7.32
2017-12-26T06:18:54.315Z,7.43
2017-12-26T06:19:54.887Z,7.53
2017-12-26T06:20:55.456Z,7.73
2017-12-26T06:21:56.026Z,7.77
2017-12-26T06:22:56.595Z,7.82
2017-12-26T06:23:57.165Z,7.69
2017-12-26T06:24:57.739Z,7.75
2017-12-26T06:25:58.308Z,7.72
2017-12-26T06:26:58.879Z,7.76
2017-12-26T06:27:59.446Z,7.90
2017-12-26T06:29:00.017Z,7.88
2017-12-26T06:30:00.588Z,7.94
2017-12-26T06:31:01.171Z,7.83
2017-12-26T06:32:01.743Z,8.08
2017-12-26T06:33:02.313Z,8.08
2017-12-26T06:34:02.885Z,7.90
2017-12-26T06:35:03.454Z,8.05
2017-12-26T06:36:04.022Z,8.00
2017-12-26T06:37:04.594Z,7.85
2017-12-26T06:38:05.159Z,7.85
2017-12-26T06:39:05.730Z,7.73
2017-12-26T06:40:06.302Z,7.70
2017-12-26T06:41:06.871Z,7.67
2017-12-26T06:42:07.440Z,7.72
2017-12-26T06:43:08.012Z,7.67
2017-12-26T06:44:08.581Z,7.61
2017-12-26T06:45:09.151Z,7.53
2017-12-26T06:46:09.735Z,7.51
2017-12-26T06:47:10.304Z,7.51
2017-12-26T06:48:10.875Z,7.70
2017-12-26T06:49:11.457Z,7.51
2017-12-26T06:50:12.026Z,7.42
2017-12-26T06:51:12.595Z,7.40
2017-12-26T06:52:13.166Z,7.47
2017-12-26T06:53:13.736Z,7.47
2017-12-26T06:54:14.320Z,7.38
2017-12-26T06:55:14.893Z,7.31
2017-12-26T06:56:15.463Z,7.32
2017-12-26T06:57:16.032Z,7.23
2017-12-26T06:58:16.601Z,7.20
2017-12-26T06:59:17.221Z,7.17
2017-12-26T07:00:17.792Z,7.14
2017-12-26T07:01:18.362Z,7.14
2017-12-26T07:02:18.930Z,6.99
2017-12-26T07:03:19.498Z,7.06
2017-12-26T07:04:20.069Z,7.10
2017-12-26T07:05:20.650Z,7.03
2017-12-26T07:06:21.220Z,6.97
2017-12-26T07:07:21.788Z,7.00
2017-12-26T07:08:22.356Z,6.97
2017-12-26T07:09:22.925Z,6.99
2017-12-26T07:10:23.497Z,6.93
2017-12-26T07:11:24.079Z,6.96
2017-12-26T07:12:24.650Z,6.85
2017-12-26T07:13:25.221Z,6.82
2017-12-26T07:14:25.791Z,6.87
2017-12-26T07:15:26.360Z,6.88
2017-12-26T07:16:26.930Z,6.81
2017-12-26T07:17:27.498Z,6.85
2017-12-26T07:18:28.067Z,6.85
2017-12-26T07:19:28.650Z,6.92
2017-12-26T07:20:29.220Z,6.82
2017-12-26T07:21:29.788Z,6.81
2017-12-26T07:22:30.359Z,6.81
2017-12-26T07:23:30.930Z,6.78
2017-12-26T07:24:31.540Z,6.78
2017-12-26T07:25:32.069Z,6.82
2017-12-26T07:26:32.638Z,6.84
2017-12-26T07:27:33.207Z,6.78
2017-12-26T07:28:33.776Z,6.82
2017-12-26T07:29:34.347Z,6.82
2017-12-26T07:30:34.930Z,6.84
2017-12-26T07:31:35.501Z,6.77
2017-12-26T07:32:36.071Z,6.78
2017-12-26T07:33:36.654Z,6.77
2017-12-26T07:34:37.225Z,6.75
2017-12-26T07:35:37.795Z,6.85
2017-12-26T07:36:38.378Z,6.79
2017-12-26T07:37:38.948Z,6.81
2017-12-26T07:38:39.518Z,6.70
2017-12-26T07:39:40.087Z,6.74
2017-12-26T07:40:40.655Z,6.78
2017-12-26T07:41:41.233Z,6.77
2017-12-26T07:42:41.797Z,6.79
2017-12-26T07:43:42.365Z,6.77
2017-12-26T07:44:42.937Z,6.77
2017-12-26T07:45:43.507Z,6.72
2017-12-26T07:46:44.075Z,6.75
2017-12-26T07:47:44.644Z,6.63
2017-12-26T07:48:45.228Z,6.78
2017-12-26T07:49:45.797Z,6.77
2017-12-26T07:50:46.368Z,6.67
2017-12-26T07:51:46.939Z,6.72
2017-12-26T07:52:47.510Z,6.69
2017-12-26T07:53:48.079Z,6.62
2017-12-26T07:54:48.647Z,6.70
2017-12-26T07:55:49.221Z,6.60
2017-12-26T07:56:49.802Z,6.60
2017-12-26T07:57:50.372Z,6.69
2017-12-26T07:58:50.941Z,6.70
2017-12-26T07:59:51.514Z,6.63
2017-12-26T08:00:52.081Z,6.70
2017-12-26T08:01:52.650Z,6.59
2017-12-26T08:02:53.234Z,6.62
2017-12-26T08:03:53.805Z,6.60
2017-12-26T08:04:54.374Z,6.59
2017-12-26T08:05:54.941Z,6.56
2017-12-26T08:06:55.513Z,6.60
2017-12-26T08:07:56.084Z,6.62
2017-12-26T08:08:56.655Z,6.57
2017-12-26T08:09:57.223Z,6.57
2017-12-26T08:10:57.806Z,6.49
2017-12-26T08:11:58.376Z,6.49
2017-12-26T08:12:58.944Z,6.57
2017-12-26T08:13:59.514Z,6.51
2017-12-26T08:15:00.085Z,6.52
2017-12-26T08:16:00.655Z,6.46
2017-12-26T08:17:01.224Z,6.49
2017-12-26T08:18:01.829Z,6.51
2017-12-26T08:19:02.362Z,6.46
2017-12-26T08:20:02.929Z,6.46
2017-12-26T08:21:03.498Z,6.52
2017-12-26T08:22:04.067Z,6.41
2017-12-26T08:23:04.637Z,6.38
2017-12-26T08:24:05.209Z,6.38
2017-12-26T08:25:05.828Z,6.41
2017-12-26T08:26:06.405Z,6.41
2017-12-26T08:27:06.971Z,6.36
2017-12-26T08:28:07.540Z,6.36
2017-12-26T08:29:08.110Z,6.38
2017-12-26T08:30:08.682Z,6.39
2017-12-26T08:31:09.251Z,6.41
2017-12-26T08:32:09.823Z,6.31
2017-12-26T08:33:10.391Z,6.35
2017-12-26T08:34:10.961Z,6.33
2017-12-26T08:35:11.532Z,6.30
2017-12-26T08:36:12.103Z,6.33
2017-12-26T08:37:12.689Z,6.24
2017-12-26T08:38:13.259Z,6.22
2017-12-26T08:39:13.829Z,6.35
2017-12-26T08:40:14.400Z,6.22
2017-12-26T08:41:14.968Z,6.24
2017-12-26T08:42:15.539Z,6.28
2017-12-26T08:43:16.115Z,6.27
2017-12-26T08:44:16.694Z,6.26
2017-12-26T08:45:17.266Z,6.31
2017-12-26T08:46:17.840Z,6.24
2017-12-26T08:47:18.421Z,6.24
2017-12-26T08:48:18.992Z,6.26
2017-12-26T08:49:19.562Z,6.22
2017-12-26T08:50:20.130Z,6.31
2017-12-26T08:51:20.700Z,6.27
2017-12-26T08:52:21.271Z,6.27
2017-12-26T08:53:21.841Z,6.30
2017-12-26T08:54:22.411Z,6.27
2017-12-26T08:55:22.980Z,6.24
2017-12-26T08:56:23.553Z,6.30
2017-12-26T08:57:24.122Z,6.27
2017-12-26T08:58:24.710Z,6.20
2017-12-26T08:59:25.277Z,6.28
2017-12-26T09:00:25.862Z,6.27
2017-12-26T09:01:26.446Z,6.31
2017-12-26T09:02:27.018Z,6.14
2017-12-26T09:03:27.591Z,6.26
2017-12-26T09:04:28.158Z,6.26
2017-12-26T09:05:28.728Z,6.27
2017-12-26T09:06:29.302Z,6.22
2017-12-26T09:07:29.871Z,6.26
2017-12-26T09:08:30.445Z,6.28
2017-12-26T09:09:31.011Z,6.28
2017-12-26T09:10:31.583Z,6.26
2017-12-26T09:11:32.153Z,6.22
2017-12-26T09:12:32.723Z,6.26
2017-12-26T09:13:33.293Z,6.26
2017-12-26T09:14:33.862Z,6.27
2017-12-26T09:15:34.434Z,6.26
2017-12-26T09:16:35.005Z,6.27
2017-12-26T09:17:35.589Z,6.30
2017-12-26T09:18:36.161Z,6.24
2017-12-26T09:19:36.736Z,6.24
2017-12-26T09:20:37.302Z,6.27
2017-12-26T09:21:37.876Z,6.24
2017-12-26T09:22:38.447Z,6.28
2017-12-26T09:23:39.028Z,6.31
2017-12-26T09:24:39.601Z,6.24
2017-12-26T09:25:40.169Z,6.24
2017-12-26T09:26:40.740Z,6.26
2017-12-26T09:27:41.313Z,6.22
2017-12-26T09:28:41.883Z,6.26
2017-12-26T09:29:42.455Z,6.22
2017-12-26T09:30:43.024Z,6.26
2017-12-26T09:31:43.596Z,6.20
2017-12-26T09:32:44.168Z,6.24
2017-12-26T09:33:44.740Z,6.26
2017-12-26T09:34:45.311Z,6.24
2017-12-26T09:35:45.882Z,6.26
2017-12-26T09:36:46.467Z,6.27
2017-12-26T09:37:47.038Z,6.24
2017-12-26T09:38:47.611Z,6.30
2017-12-26T09:39:48.184Z,6.38
2017-12-26T09:40:48.754Z,6.31
2017-12-26T09:41:49.328Z,6.31
2017-12-26T09:42:49.904Z,6.31
2017-12-26T09:43:50.469Z,6.30
2017-12-26T09:44:51.043Z,6.31
2017-12-26T09:45:51.664Z,6.33
2017-12-26T09:46:52.248Z,6.41
2017-12-26T09:47:52.818Z,6.30
2017-12-26T09:48:53.390Z,6.39
2017-12-26T09:49:53.962Z,6.30
2017-12-26T09:50:54.532Z,6.28
2017-12-26T09:51:55.102Z,6.31
2017-12-26T09:52:55.673Z,6.35
2017-12-26T09:53:56.245Z,6.28
2017-12-26T09:54:56.814Z,6.33
2017-12-26T09:55:57.385Z,6.31
2017-12-26T09:56:57.955Z,6.30
2017-12-26T09:57:58.528Z,6.33
2017-12-26T09:58:59.114Z,6.31
2017-12-26T09:59:59.695Z,6.30
2017-12-26T10:01:00.267Z,6.33
2017-12-26T10:02:00.842Z,6.35
2017-12-26T10:03:01.413Z,6.33
2017-12-26T10:04:01.998Z,6.33
2017-12-26T10:05:02.568Z,6.36
2017-12-26T10:06:03.140Z,6.36
2017-12-26T10:07:03.713Z,6.38
2017-12-26T10:08:04.284Z,6.36
2017-12-26T10:09:04.854Z,6.33
2017-12-26T10:10:05.426Z,6.33
2017-12-26T10:11:05.998Z,6.42
2017-12-26T10:12:06.574Z,6.39
2017-12-26T10:13:07.139Z,6.31
2017-12-26T10:14:07.711Z,6.35
2017-12-26T10:15:08.295Z,6.38
2017-12-26T10:16:08.868Z,6.36
2017-12-26T10:17:09.438Z,6.36
2017-12-26T10:18:10.009Z,6.38
2017-12-26T10:19:10.580Z,6.36
2017-12-26T10:20:11.171Z,6.31
2017-12-26T10:21:11.754Z,6.31
2017-12-26T10:22:12.325Z,6.39
2017-12-26T10:23:12.898Z,6.48
2017-12-26T10:24:13.468Z,6.48
2017-12-26T10:25:14.053Z,6.36
2017-12-26T10:26:14.625Z,6.46
2017-12-26T10:27:15.197Z,6.48
2017-12-26T10:28:15.771Z,6.48
2017-12-26T10:29:16.344Z,6.48
2017-12-26T10:30:16.916Z,6.57
2017-12-26T10:31:17.490Z,6.59
2017-12-26T10:32:18.064Z,6.54
2017-12-26T10:33:18.646Z,6.60
2017-12-26T10:34:19.216Z,6.51
2017-12-26T10:35:19.791Z,6.59
2017-12-26T10:36:20.364Z,6.54
2017-12-26T10:37:20.937Z,6.57
2017-12-26T10:38:21.510Z,6.62
2017-12-26T10:39:22.084Z,6.57
2017-12-26T10:40:22.655Z,6.51
2017-12-26T10:41:23.236Z,6.56
2017-12-26T10:42:23.801Z,6.60
2017-12-26T10:43:24.373Z,6.57
2017-12-26T10:44:24.944Z,6.63
2017-12-26T10:45:25.518Z,6.60
2017-12-26T10:46:26.090Z,6.54
2017-12-26T10:47:26.662Z,6.62
2017-12-26T10:48:27.234Z,6.51
2017-12-26T10:49:27.807Z,6.62
2017-12-26T10:50:28.380Z,6.57
2017-12-26T10:51:28.952Z,6.60
2017-12-26T10:52:29.536Z,6.59
2017-12-26T10:53:30.100Z,6.59
2017-12-26T10:54:30.672Z,6.64
2017-12-26T10:55:31.247Z,6.63
2017-12-26T10:56:31.819Z,6.60
2017-12-26T10:57:32.390Z,6.72
2017-12-26T10:58:32.964Z,6.66
2017-12-26T10:59:33.547Z,6.62
2017-12-26T11:00:34.122Z,6.70
2017-12-26T11:01:34.700Z,6.64
2017-12-26T11:02:35.267Z,6.66
2017-12-26T11:03:35.841Z,6.62
2017-12-26T11:04:36.412Z,6.64
2017-12-26T11:05:36.981Z,6.69
2017-12-26T11:06:37.555Z,6.60
2017-12-26T11:07:38.125Z,6.69
2017-12-26T11:08:38.699Z,6.57
2017-12-26T11:09:39.270Z,6.69
2017-12-26T11:10:39.844Z,6.66
2017-12-26T11:11:40.431Z,6.60
2017-12-26T11:12:41.006Z,6.64
2017-12-26T11:13:41.577Z,6.56
2017-12-26T11:14:42.151Z,6.69
2017-12-26T11:15:42.726Z,6.70
2017-12-26T11:16:43.301Z,6.66
2017-12-26T11:17:43.886Z,6.69
2017-12-26T11:18:44.459Z,6.62
2017-12-26T11:19:45.035Z,6.67
2017-12-26T11:20:45.606Z,6.66
2017-12-26T11:21:46.193Z,6.72
2017-12-26T11:22:46.765Z,6.63
2017-12-26T11:23:47.342Z,6.67
2017-12-26T11:24:47.914Z,6.67
2017-12-26T11:25:48.487Z,6.66
2017-12-26T11:26:49.063Z,6.67
2017-12-26T11:27:49.664Z,6.67
2017-12-26T11:28:50.240Z,6.67
2017-12-26T11:29:50.825Z,6.67
2017-12-26T11:30:51.398Z,6.67
2017-12-26T11:31:51.973Z,6.69
2017-12-26T11:32:52.545Z,6.64
2017-12-26T11:33:53.132Z,6.66
2017-12-26T11:34:53.704Z,6.75
2017-12-26T11:35:54.278Z,6.78
2017-12-26T11:36:54.854Z,6.82
2017-12-26T11:37:55.443Z,6.81
2017-12-26T11:38:56.018Z,6.85
2017-12-26T11:39:56.590Z,7.00
2017-12-26T11:40:57.162Z,7.05
2017-12-26T11:41:57.734Z,7.05
2017-12-26T11:42:58.307Z,7.03
2017-12-26T11:43:58.881Z,6.99
2017-12-26T11:44:59.454Z,6.93
2017-12-26T11:46:00.028Z,6.97
2017-12-26T11:47:00.600Z,6.99
2017-12-26T11:48:01.171Z,6.95
2017-12-26T11:49:01.743Z,6.95
2017-12-26T11:50:02.317Z,6.87
2017-12-26T11:51:02.887Z,6.93
2017-12-26T11:52:03.474Z,6.87
2017-12-26T11:53:04.046Z,6.93
2017-12-26T11:54:04.619Z,6.89
2017-12-26T11:55:05.193Z,6.85
2017-12-26T11:56:05.763Z,6.96
2017-12-26T11:57:06.334Z,6.95
2017-12-26T11:58:06.907Z,6.89
2017-12-26T11:59:07.481Z,6.88
2017-12-26T12:00:08.052Z,6.85
2017-12-26T12:01:08.625Z,6.85
2017-12-26T12:02:09.212Z,6.81
2017-12-26T12:03:09.787Z,6.85
2017-12-26T12:04:10.359Z,6.89
2017-12-26T12:05:10.931Z,6.87
2017-12-26T12:06:11.505Z,6.95
2017-12-26T12:07:12.079Z,6.99
2017-12-26T12:08:12.651Z,6.96
2017-12-26T12:09:13.225Z,6.97
2017-12-26T12:10:13.798Z,6.85
2017-12-26T12:11:14.371Z,6.89
2017-12-26T12:12:14.944Z,6.89
2017-12-26T12:13:15.518Z,6.89
2017-12-26T12:14:16.089Z,6.92
2017-12-26T12:15:16.664Z,6.92
2017-12-26T12:16:17.236Z,6.93
2017-12-26T12:17:17.809Z,6.95
2017-12-26T12:18:18.395Z,6.89
2017-12-26T12:19:18.967Z,6.97
2017-12-26T12:20:19.539Z,7.02
2017-12-26T12:21:20.113Z,6.97
2017-12-26T12:22:20.686Z,7.00
2017-12-26T12:23:21.260Z,7.02
2017-12-26T12:24:21.850Z,7.00
2017-12-26T12:25:22.436Z,6.99
2017-12-26T12:26:23.008Z,6.93
2017-12-26T12:27:23.581Z,6.84
2017-12-26T12:28:24.155Z,6.92
2017-12-26T12:29:24.730Z,6.85
2017-12-26T12:30:25.302Z,6.87
2017-12-26T12:31:25.876Z,6.95
2017-12-26T12:32:26.450Z,6.88
2017-12-26T12:33:27.023Z,6.82
2017-12-26T12:34:27.596Z,6.88
2017-12-26T12:35:28.169Z,6.84
2017-12-26T12:36:28.740Z,6.84
2017-12-26T12:37:29.327Z,6.85
2017-12-26T12:38:29.899Z,6.89
2017-12-26T12:39:30.472Z,6.89
2017-12-26T12:40:31.049Z,6.93
2017-12-26T12:41:31.621Z,6.89
2017-12-26T12:42:32.195Z,6.89
2017-12-26T12:43:32.765Z,6.87
2017-12-26T12:44:33.337Z,6.88
2017-12-26T12:45:33.910Z,6.99
2017-12-26T12:46:34.489Z,6.85
2017-12-26T12:47:35.058Z,6.89
2017-12-26T12:48:35.637Z,6.92
2017-12-26T12:49:36.203Z,6.87
2017-12-26T12:50:36.774Z,6.88
2017-12-26T12:51:37.345Z,6.89
2017-12-26T12:52:37.917Z,6.95
2017-12-26T12:53:38.490Z,6.85
2017-12-26T12:54:39.061Z,6.95
2017-12-26T12:55:39.634Z,6.95
2017-12-26T12:56:40.208Z,6.93
2017-12-26T12:57:40.795Z,7.00
2017-12-26T12:58:41.384Z,7.03
2017-12-26T12:59:41.956Z,6.97
2017-12-26T13:00:42.528Z,6.97
2017-12-26T13:01:43.099Z,7.00
2017-12-26T13:02:43.672Z,7.03
2017-12-26T13:03:44.245Z,6.96
2017-12-26T13:04:44.870Z,7.03
2017-12-26T13:05:45.390Z,7.00
2017-12-26T13:06:45.964Z,7.02
2017-12-26T13:07:46.535Z,7.06
2017-12-26T13:08:47.108Z,7.06
2017-12-26T13:09:47.682Z,7.07
2017-12-26T13:10:48.268Z,7.07
2017-12-26T13:11:48.841Z,7.11
2017-12-26T13:12:49.427Z,7.05
2017-12-26T13:13:49.999Z,7.06
2017-12-26T13:14:50.572Z,7.10
2017-12-26T13:15:51.144Z,7.00
2017-12-26T13:16:51.717Z,6.99
2017-12-26T13:17:52.289Z,6.99
2017-12-26T13:18:52.861Z,7.00
2017-12-26T13:19:53.435Z,7.07
2017-12-26T13:20:54.007Z,7.02
2017-12-26T13:21:54.593Z,7.11
2017-12-26T13:22:55.166Z,7.02
2017-12-26T13:23:55.740Z,7.06
2017-12-26T13:24:56.312Z,7.06
2017-12-26T13:25:56.884Z,7.06